Time;durP1;ratioP1;P1;durP2;ratioP2;P2;SDS_P1;SDS_P2;PMS_P1;PMS_P2;Temp;Humidity;BMP_temperature;BMP_pressure;BME280_temperature;BME280_humidity;BME280_pressure;Samples;Min_cycle;Max_cycle;Signal;HPM_P1;HPM_P2
2021/03/14 00:00:39;;;;;;;16.15;10.48;;;;;;;10.94;61.96;101559.36;1665810;85;21219;-46
2021/03/14 00:03:12;;;;;;;14.63;9.63;;;;;;;10.95;61.88;101555.89;1667838;85;21191;-46
2021/03/14 00:05:47;;;;;;;13.80;9.58;;;;;;;10.98;61.78;101551.97;1771601;79;22969;-46
2021/03/14 00:08:17;;;;;;;15.48;11.55;;;;;;;10.95;61.65;101555.89;1740927;82;21219;-46
2021/03/14 00:10:49;;;;;;;12.85;10.93;;;;;;;10.94;61.56;101561.12;1738638;82;21140;-46
2021/03/14 00:13:21;;;;;;;14.28;10.65;;;;;;;10.92;61.43;101557.67;1738985;82;21148;-46
2021/03/14 00:15:49;;;;;;;16.52;10.72;;;;;;;10.92;61.50;101557.21;1738272;82;21176;-46
2021/03/14 00:18:19;;;;;;;12.80;10.28;;;;;;;10.92;61.60;101558.98;1738561;82;21116;-46
2021/03/14 00:20:47;;;;;;;15.40;12.07;;;;;;;10.92;61.61;101555.91;1737005;82;21636;-46
2021/03/14 00:23:15;;;;;;;15.20;11.10;;;;;;;10.94;61.62;101554.15;1736671;82;21133;-46
2021/03/14 00:25:42;;;;;;;16.02;11.08;;;;;;;10.93;61.63;101540.72;1737998;82;21164;-46
2021/03/14 00:28:12;;;;;;;14.28;11.25;;;;;;;10.94;61.56;101541.13;1744586;82;21156;-46
2021/03/14 00:30:40;;;;;;;19.30;11.22;;;;;;;10.93;61.59;101537.25;1732169;82;21561;-46
2021/03/14 00:33:09;;;;;;;15.63;11.60;;;;;;;10.91;61.60;101534.67;1742554;82;21589;-46
2021/03/14 00:35:37;;;;;;;19.02;12.88;;;;;;;10.92;61.56;101529.03;1736766;82;21164;-46
2021/03/14 00:38:06;;;;;;;19.10;12.55;;;;;;;10.92;61.57;101535.08;1738030;82;21137;-46
2021/03/14 00:40:34;;;;;;;13.30;11.15;;;;;;;10.92;61.40;101527.27;1734697;82;21184;-46
2021/03/14 00:43:04;;;;;;;16.37;10.90;;;;;;;10.91;61.23;101522.95;1740248;82;21592;-46
2021/03/14 00:45:34;;;;;;;14.10;10.30;;;;;;;10.89;61.35;101522.11;1741227;81;21584;-46
2021/03/14 00:48:04;;;;;;;18.37;10.68;;;;;;;10.87;61.48;101521.27;1732188;82;21141;-46
2021/03/14 00:50:36;;;;;;;14.38;11.12;;;;;;;10.86;61.72;101522.13;1735816;82;21612;-46
2021/03/14 00:53:05;;;;;;;13.50;9.85;;;;;;;10.86;61.68;101526.03;1662287;84;21313;-46
2021/03/14 00:55:34;;;;;;;18.65;11.97;;;;;;;10.85;61.71;101526.06;1654532;86;21226;-46
2021/03/14 00:58:03;;;;;;;17.70;12.53;;;;;;;10.85;61.86;101531.27;1656101;86;21245;-46
2021/03/14 01:00:30;;;;;;;16.97;11.22;;;;;;;10.85;62.03;101528.23;1627955;86;21645;-46
2021/03/14 01:02:58;;;;;;;17.35;10.53;;;;;;;10.87;61.96;101521.27;1653486;86;21594;-46
2021/03/14 01:05:27;;;;;;;14.87;11.30;;;;;;;10.87;62.00;101523.87;1650814;86;21277;-46
2021/03/14 01:07:55;;;;;;;13.58;11.03;;;;;;;10.86;62.03;101515.62;1654020;86;21198;-46
2021/03/14 01:10:23;;;;;;;13.32;10.63;;;;;;;10.86;61.91;101506.97;1648187;86;21190;-46
2021/03/14 01:12:51;;;;;;;13.55;10.20;;;;;;;10.85;62.05;101503.50;1651136;86;21185;-46
2021/03/14 01:15:20;;;;;;;17.82;12.00;;;;;;;10.84;62.11;101494.41;1650047;86;21175;-46
2021/03/14 01:17:50;;;;;;;16.00;12.00;;;;;;;10.85;62.24;101495.69;1651341;86;21619;-46
2021/03/14 01:20:20;;;;;;;17.30;12.58;;;;;;;10.87;62.23;101497.83;1653399;86;21234;-46
2021/03/14 01:22:48;;;;;;;18.90;12.68;;;;;;;10.87;62.24;101495.23;1650590;86;21168;-46
2021/03/14 01:25:16;;;;;;;17.55;11.70;;;;;;;10.86;62.12;101496.09;1653602;86;21251;-46
2021/03/14 01:27:47;;;;;;;19.98;12.03;;;;;;;10.85;62.13;101499.59;1647160;86;21152;-46
2021/03/14 01:30:17;;;;;;;16.35;11.40;;;;;;;10.85;62.36;101498.29;1640826;85;21214;-46
2021/03/14 01:32:46;;;;;;;15.58;12.18;;;;;;;10.86;62.24;101493.48;1648369;86;21183;-46
2021/03/14 01:35:16;;;;;;;19.00;12.98;;;;;;;10.86;62.25;101496.09;1650762;86;21143;-46
2021/03/14 01:37:44;;;;;;;17.67;12.85;;;;;;;10.86;62.23;101492.19;1649834;86;21156;-46
2021/03/14 01:40:16;;;;;;;16.95;12.98;;;;;;;10.86;62.25;101496.09;1653058;86;21163;-46
2021/03/14 01:42:44;;;;;;;20.32;12.10;;;;;;;10.86;62.24;101494.79;1649403;86;21171;-46
2021/03/14 01:45:14;;;;;;;14.55;11.33;;;;;;;10.87;62.24;101494.36;1651092;86;21175;-46
2021/03/14 01:47:47;;;;;;;15.60;11.80;;;;;;;10.87;62.02;101492.62;1639626;86;21192;-46
2021/03/14 01:50:22;;;;;;;13.98;10.82;;;;;;;10.87;62.03;101486.55;1705698;82;21196;-46
2021/03/14 01:52:50;;;;;;;20.97;11.68;;;;;;;10.86;62.00;101487.45;1738883;82;21184;-46
2021/03/14 01:55:20;;;;;;;16.77;10.95;;;;;;;10.85;61.92;101483.97;1733426;82;21160;-46
2021/03/14 01:57:48;;;;;;;14.05;10.98;;;;;;;10.84;61.97;101487.44;1734743;82;21160;-46
2021/03/14 02:00:24;;;;;;;16.23;11.10;;;;;;;10.81;62.07;101482.28;1737319;82;21125;-46
2021/03/14 02:02:52;;;;;;;15.60;11.65;;;;;;;10.83;62.05;101490.94;1727488;82;21184;-46
2021/03/14 02:05:21;;;;;;;15.38;11.60;;;;;;;10.82;61.89;101485.30;1732031;81;21184;-46
2021/03/14 02:07:52;;;;;;;17.42;11.55;;;;;;;10.81;61.83;101478.81;1727209;82;21569;-46
2021/03/14 02:10:23;;;;;;;16.42;12.18;;;;;;;10.81;61.82;101477.08;1724389;82;21133;-46
2021/03/14 02:13:01;;;;;;;16.02;10.55;;;;;;;10.79;61.94;101476.23;1729505;82;21118;-46
2021/03/14 02:15:30;;;;;;;15.32;10.15;;;;;;;10.79;61.89;101481.44;1719308;82;21153;-46
2021/03/14 02:17:58;;;;;;;14.73;11.60;;;;;;;10.79;61.95;101484.05;1731092;82;21141;-46
2021/03/14 02:20:28;;;;;;;13.45;10.88;;;;;;;10.80;61.85;101490.95;1719070;82;21307;-46
2021/03/14 02:23:45;;;;;;;14.78;10.38;;;;;;;10.80;61.82;101485.75;1721628;82;21181;-46
2021/03/14 02:26:31;;;;;;;19.45;11.30;;;;;;;10.79;61.76;101485.34;1727605;82;21562;-46
2021/03/14 02:28:59;;;;;;;17.20;12.50;;;;;;;10.79;61.79;101489.25;1718320;82;21302;-46
2021/03/14 02:31:28;;;;;;;16.32;12.78;;;;;;;10.78;61.89;101485.37;1730048;82;21145;-46
2021/03/14 02:34:07;;;;;;;16.12;12.98;;;;;;;10.79;61.96;101487.95;1718558;82;21156;-46
2021/03/14 02:36:37;;;;;;;24.02;14.07;;;;;;;10.79;61.87;101489.25;1707564;83;21176;-45
2021/03/14 02:39:09;;;;;;;18.15;12.85;;;;;;;10.79;61.94;101482.73;1710031;83;21173;-45
2021/03/14 02:41:37;;;;;;;14.87;11.80;;;;;;;10.79;61.97;101487.95;1708260;83;21561;-45
2021/03/14 02:44:06;;;;;;;18.12;13.30;;;;;;;10.79;62.04;101490.55;1683818;83;21632;-45
2021/03/14 02:46:34;;;;;;;22.37;13.65;;;;;;;10.82;61.88;101485.75;1712821;83;21177;-45
2021/03/14 02:49:02;;;;;;;14.68;11.97;;;;;;;10.82;61.73;101486.59;1713039;83;21204;-45
2021/03/14 02:51:32;;;;;;;17.23;13.35;;;;;;;10.81;61.64;101485.31;1711485;83;21636;-45
2021/03/14 02:54:00;;;;;;;17.75;12.58;;;;;;;10.78;61.62;101475.80;1710448;83;21188;-45
2021/03/14 02:56:30;;;;;;;16.05;12.23;;;;;;;10.77;61.64;101476.69;1685677;83;21152;-46
2021/03/14 02:58:57;;;;;;;19.50;13.83;;;;;;;10.73;61.63;101471.09;1713463;83;21176;-45
2021/03/14 03:01:25;;;;;;;19.45;13.55;;;;;;;10.71;61.86;101468.95;1712830;83;21169;-45
2021/03/14 03:03:56;;;;;;;18.65;14.20;;;;;;;10.71;61.92;101466.78;1712515;83;21348;-45
2021/03/14 03:06:24;;;;;;;19.82;14.85;;;;;;;10.68;62.00;101465.06;1710685;83;21244;-45
2021/03/14 03:08:53;;;;;;;19.30;14.73;;;;;;;10.66;62.08;101457.71;1709966;83;21164;-45
2021/03/14 03:11:22;;;;;;;16.85;13.62;;;;;;;10.67;62.08;101454.25;1682742;83;21200;-45
2021/03/14 03:13:51;;;;;;;17.67;14.53;;;;;;;10.65;62.22;101449.50;1710347;83;21326;-46
2021/03/14 03:16:21;;;;;;;23.38;15.50;;;;;;;10.67;62.27;101445.14;1712068;83;21624;-45
2021/03/14 03:18:50;;;;;;;27.48;16.95;;;;;;;10.69;62.21;101445.98;1712996;83;21652;-45
2021/03/14 03:21:20;;;;;;;30.27;17.05;;;;;;;10.70;62.02;101445.09;1713037;83;21281;-45
2021/03/14 03:23:54;;;;;;;23.62;17.50;;;;;;;10.74;61.95;101442.03;1771202;79;23135;-46
2021/03/14 03:26:22;;;;;;;24.23;17.15;;;;;;;10.69;62.10;101443.37;1738852;82;21160;-46
2021/03/14 03:28:50;;;;;;;27.07;18.62;;;;;;;10.69;62.29;101436.87;1736868;82;21152;-46
2021/03/14 03:31:18;;;;;;;23.75;17.87;;;;;;;10.71;62.21;101438.14;1740338;82;21164;-46
2021/03/14 03:33:46;;;;;;;26.15;18.27;;;;;;;10.71;62.17;101429.91;1734484;82;21136;-46
2021/03/14 03:36:14;;;;;;;24.00;18.00;;;;;;;10.72;62.16;101430.74;1744327;82;21149;-46
2021/03/14 03:38:42;;;;;;;22.70;17.90;;;;;;;10.73;62.18;101429.45;1732180;82;21172;-46
2021/03/14 03:41:14;;;;;;;26.20;18.02;;;;;;;10.73;62.17;101422.94;1742771;82;21163;-46
2021/03/14 03:43:42;;;;;;;27.37;18.35;;;;;;;10.74;62.08;101430.31;1737152;82;21275;-46
2021/03/14 03:46:13;;;;;;;27.32;19.35;;;;;;;10.74;62.07;101429.85;1738079;82;21617;-46
2021/03/14 03:48:49;;;;;;;28.67;20.55;;;;;;;10.73;62.00;101427.27;1739200;81;21679;-46
2021/03/14 03:51:19;;;;;;;24.18;19.07;;;;;;;10.72;62.00;101430.74;1744156;82;21552;-46
2021/03/14 03:53:48;;;;;;;27.62;18.75;;;;;;;10.71;62.13;101437.72;1737137;82;21145;-46
2021/03/14 03:56:16;;;;;;;29.95;19.40;;;;;;;10.70;62.23;101442.48;1741129;82;21212;-46
2021/03/14 03:58:44;;;;;;;32.93;20.45;;;;;;;10.71;62.20;101437.72;1712843;82;21152;-46
2021/03/14 04:01:12;;;;;;;31.52;21.20;;;;;;;10.72;62.13;101431.61;1712132;82;21573;-46
2021/03/14 04:03:44;;;;;;;24.70;19.37;;;;;;;10.72;62.11;101432.91;1732102;82;21358;-46
2021/03/14 04:06:14;;;;;;;26.40;19.90;;;;;;;10.70;62.13;101433.37;1742822;82;21165;-46
2021/03/14 04:08:43;;;;;;;26.97;18.48;;;;;;;10.67;62.20;101434.72;1736191;82;21179;-46
2021/03/14 04:11:14;;;;;;;29.60;18.42;;;;;;;10.65;62.23;101432.12;1738427;82;21141;-46
2021/03/14 04:13:43;;;;;;;23.57;18.25;;;;;;;10.65;62.31;101424.77;1728547;82;21469;-46
2021/03/14 04:16:11;;;;;;;29.00;18.95;;;;;;;10.65;62.16;101429.98;1741442;82;21195;-46
2021/03/14 04:18:40;;;;;;;23.87;17.70;;;;;;;10.64;62.27;101434.74;1737816;81;21121;-47
2021/03/14 04:21:14;;;;;;;24.15;19.42;;;;;;;10.62;62.40;101428.70;1738628;82;21180;-46
2021/03/14 04:23:46;;;;;;;21.60;17.23;;;;;;;10.61;62.35;101424.39;1727084;81;21157;-46
2021/03/14 04:26:20;;;;;;;19.37;16.42;;;;;;;10.60;62.41;101422.64;1725718;82;21153;-46
2021/03/14 04:28:50;;;;;;;22.70;15.83;;;;;;;10.60;62.60;101423.52;1723600;82;21145;-47
2021/03/14 04:31:18;;;;;;;18.87;14.90;;;;;;;10.56;62.71;101420.53;1670276;84;21156;-46
2021/03/14 04:33:46;;;;;;;16.37;14.65;;;;;;;10.56;62.77;101420.95;1687464;84;21148;-46
2021/03/14 04:36:14;;;;;;;23.12;14.05;;;;;;;10.59;62.70;101416.57;1696218;84;21168;-46
2021/03/14 04:38:43;;;;;;;24.92;13.32;;;;;;;10.60;62.58;101418.74;1685952;84;21169;-46
2021/03/14 04:41:12;;;;;;;21.60;14.00;;;;;;;10.58;62.51;101420.50;1680927;84;21156;-46
2021/03/14 04:43:41;;;;;;;27.75;14.03;;;;;;;10.58;62.51;101421.80;1650694;86;21260;-46
2021/03/14 04:46:13;;;;;;;19.42;13.83;;;;;;;10.56;62.54;101420.95;1661336;86;21188;-46
2021/03/14 04:48:41;;;;;;;15.53;13.80;;;;;;;10.54;62.24;101417.52;1719072;83;21179;-46
2021/03/14 04:51:10;;;;;;;29.55;13.22;;;;;;;10.51;62.37;101409.72;1712012;83;21175;-46
2021/03/14 04:53:38;;;;;;;22.60;12.75;;;;;;;10.49;62.43;101408.88;1718447;83;21139;-46
2021/03/14 04:56:06;;;;;;;17.05;12.58;;;;;;;10.49;62.49;101415.39;1672436;83;21584;-46
2021/03/14 04:58:34;;;;;;;24.72;13.53;;;;;;;10.46;62.39;101415.44;1719071;83;21160;-46
2021/03/14 05:01:02;;;;;;;19.40;12.82;;;;;;;10.48;62.44;101422.78;1712890;83;21156;-46
2021/03/14 05:03:31;;;;;;;13.48;11.88;;;;;;;10.46;62.43;101424.54;1718941;83;21163;-46
2021/03/14 05:05:59;;;;;;;16.20;11.65;;;;;;;10.45;62.41;101417.59;1719012;83;21615;-46
2021/03/14 05:08:27;;;;;;;20.52;12.40;;;;;;;10.44;62.50;101415.89;1723201;82;21295;-46
2021/03/14 05:10:55;;;;;;;13.22;11.38;;;;;;;10.44;62.51;101419.80;1724994;82;21161;-46
2021/03/14 05:13:24;;;;;;;16.17;12.25;;;;;;;10.45;62.50;101422.80;1725131;81;21181;-46
2021/03/14 05:15:52;;;;;;;11.12;10.05;;;;;;;10.45;62.39;101425.41;1725339;82;21577;-46
2021/03/14 05:18:21;;;;;;;12.03;10.15;;;;;;;10.45;62.20;101430.61;1716909;82;21142;-46
2021/03/14 05:20:50;;;;;;;12.88;10.63;;;;;;;10.44;62.18;101426.30;1706069;82;21613;-47
2021/03/14 05:23:17;;;;;;;17.12;12.07;;;;;;;10.45;62.21;101428.88;1697820;83;21132;-46
2021/03/14 05:25:45;;;;;;;16.75;11.55;;;;;;;10.47;62.06;101434.92;1730404;81;21605;-46
2021/03/14 05:28:13;;;;;;;15.05;12.65;;;;;;;10.45;62.10;101434.08;1739857;81;21172;-46
2021/03/14 05:30:42;;;;;;;14.95;13.35;;;;;;;10.44;62.15;101438.00;1719856;81;21278;-46
2021/03/14 05:33:11;;;;;;;14.87;11.88;;;;;;;10.43;62.33;101437.56;1719677;81;21112;-46
2021/03/14 05:35:40;;;;;;;14.20;12.30;;;;;;;10.44;62.33;101431.50;1743733;81;21313;-46
2021/03/14 05:38:08;;;;;;;14.55;12.88;;;;;;;10.47;62.34;101436.66;1745756;81;21143;-46
2021/03/14 05:40:36;;;;;;;14.45;12.43;;;;;;;10.48;62.32;101433.19;1742382;81;21148;-46
2021/03/14 05:43:04;;;;;;;14.80;12.78;;;;;;;10.49;62.23;101442.70;1744913;81;21156;-46
2021/03/14 05:45:33;;;;;;;15.32;13.25;;;;;;;10.48;62.00;101443.60;1743351;81;21290;-46
2021/03/14 05:48:12;;;;;;;14.70;12.50;;;;;;;10.49;62.01;101445.31;1741648;81;21556;-46
2021/03/14 05:50:39;;;;;;;14.95;13.30;;;;;;;10.47;62.03;101448.36;1751968;81;21140;-46
2021/03/14 05:53:07;;;;;;;15.32;13.55;;;;;;;10.46;61.84;101447.53;1739878;81;21166;-46
2021/03/14 05:55:35;;;;;;;13.08;11.25;;;;;;;10.46;62.04;101454.46;1732603;81;21156;-46
2021/03/14 05:58:03;;;;;;;12.20;10.90;;;;;;;10.48;62.03;101457.91;1752478;81;21160;-46
2021/03/14 06:00:31;;;;;;;12.68;11.08;;;;;;;10.49;62.07;101460.92;1746235;81;21564;-46
2021/03/14 06:03:01;;;;;;;13.08;11.65;;;;;;;10.51;61.98;101461.77;1743751;81;21172;-46
2021/03/14 06:05:31;;;;;;;13.40;11.97;;;;;;;10.52;62.06;101455.27;1750126;81;21144;-46
2021/03/14 06:07:59;;;;;;;13.55;11.90;;;;;;;10.55;61.95;101456.98;1744115;81;21155;-46
2021/03/14 06:10:29;;;;;;;13.43;11.90;;;;;;;10.56;61.84;101450.88;1745668;81;21156;-46
2021/03/14 06:12:58;;;;;;;14.07;12.53;;;;;;;10.58;61.88;101446.52;1720486;81;21172;-46
2021/03/14 06:15:27;;;;;;;13.43;12.03;;;;;;;10.58;61.94;101445.22;1734027;81;21133;-46
2021/03/14 06:17:55;;;;;;;13.68;12.18;;;;;;;10.59;61.88;101454.77;1749029;81;21183;-46
2021/03/14 06:23:18;;;;;;;15.05;12.90;;;;;;;10.70;62.11;101462.00;1805782;79;23168;-46
2021/03/14 06:25:53;;;;;;;14.13;12.40;;;;;;;10.69;62.15;101462.90;1790301;80;21142;-46
2021/03/14 06:28:36;;;;;;;16.50;12.75;;;;;;;10.72;62.07;101465.88;1792514;80;21171;-46
2021/03/14 06:31:21;;;;;;;12.60;11.25;;;;;;;10.75;61.96;101468.03;1782878;80;21143;-46
2021/03/14 06:33:50;;;;;;;13.35;10.68;;;;;;;10.76;61.66;101467.14;1792946;80;21328;-46
2021/03/14 06:36:20;;;;;;;11.83;10.18;;;;;;;10.80;61.62;101472.73;1782867;80;21196;-46
2021/03/14 06:38:49;;;;;;;11.50;10.43;;;;;;;10.83;61.46;101467.50;1778772;80;21148;-46
2021/03/14 06:41:20;;;;;;;11.18;10.08;;;;;;;10.82;61.46;101473.58;1725644;83;21178;-45
2021/03/14 06:43:49;;;;;;;;;;;;;;;10.85;61.38;101472.25;1758917;81;21141;-45
2021/03/14 06:46:28;;;;;;;9.23;8.33;;;;;;;10.87;61.26;101477.44;1750696;81;20122;-45
2021/03/14 06:49:10;;;;;;;;;;;;;;;10.86;61.30;101472.66;1721430;83;21681;-44
2021/03/14 06:51:43;;;;;;;11.35;9.20;;;;;;;10.89;61.34;101481.75;1722632;83;20158;-45
2021/03/14 06:54:33;;;;;;;11.40;10.23;;;;;;;10.92;61.27;101474.36;1720218;83;21169;-45
2021/03/14 07:02:31;;;;;;;10.20;9.15;;;;;;;11.01;61.28;101475.09;1646421;85;21206;-46
2021/03/14 07:05:08;;;;;;;10.20;8.90;;;;;;;11.09;61.29;101479.77;1770386;79;22925;-46
2021/03/14 07:07:41;;;;;;;10.43;9.33;;;;;;;11.10;61.10;101476.30;1740507;82;22483;-46
2021/03/14 07:10:13;;;;;;;10.58;8.58;;;;;;;11.13;60.90;101478.84;1737056;82;21144;-46
2021/03/14 07:12:43;;;;;;;9.33;8.38;;;;;;;11.18;60.73;101478.36;1740485;82;21184;-47
2021/03/14 07:15:20;;;;;;;10.10;8.95;;;;;;;11.21;60.74;101478.30;1741024;82;21121;-46
2021/03/14 07:17:55;;;;;;;9.90;8.90;;;;;;;11.24;60.73;101476.98;1659959;84;21184;-46
2021/03/14 07:20:29;;;;;;;9.80;8.85;;;;;;;11.29;60.70;101477.77;1659520;86;21172;-46
2021/03/14 07:23:01;;;;;;;10.23;9.25;;;;;;;11.34;60.57;101474.67;1659373;86;21200;-46
2021/03/14 07:25:42;;;;;;;10.43;9.38;;;;;;;11.43;60.70;101469.78;1771585;79;22939;-46
2021/03/14 07:28:13;;;;;;;9.90;8.90;;;;;;;11.43;60.81;101471.95;1729764;82;21584;-46
2021/03/14 07:30:41;;;;;;;9.10;8.30;;;;;;;11.50;60.70;101471.86;1724852;83;21159;-46
2021/03/14 07:33:16;;;;;;;9.43;8.53;;;;;;;11.60;60.56;101475.62;1812177;79;22929;-46
2021/03/14 07:35:47;;;;;;;10.88;9.88;;;;;;;11.63;60.38;101474.69;1784462;80;21151;-46
2021/03/14 07:38:15;;;;;;;11.15;10.00;;;;;;;11.70;60.30;101473.77;1641018;87;21256;-46
2021/03/14 07:40:42;;;;;;;13.40;9.55;;;;;;;11.78;60.19;101475.81;1649966;87;21191;-46
2021/03/14 07:43:10;;;;;;;11.33;8.53;;;;;;;11.82;60.02;101473.14;1649999;87;21337;-47
2021/03/14 07:45:39;;;;;;;9.00;8.10;;;;;;;11.87;59.81;101476.98;1649829;87;21656;-46
2021/03/14 07:48:08;;;;;;;9.53;8.53;;;;;;;11.92;59.67;101468.63;1649852;87;21197;-46
2021/03/14 07:50:44;;;;;;;11.45;9.05;;;;;;;11.99;59.53;101462.45;1649836;87;21315;-46
2021/03/14 07:53:17;;;;;;;10.43;9.38;;;;;;;12.12;59.29;101460.03;1771525;79;23389;-46
2021/03/14 07:55:54;;;;;;;10.53;9.40;;;;;;;12.11;59.00;101457.02;1738919;82;21604;-46
2021/03/14 07:58:23;;;;;;;10.05;9.15;;;;;;;12.15;58.95;101448.25;1738252;82;21335;-46
2021/03/14 08:00:50;;;;;;;9.90;9.00;;;;;;;12.21;59.08;101452.93;1737924;82;21286;-46
2021/03/14 08:03:19;;;;;;;11.70;10.50;;;;;;;12.28;59.00;101453.69;1738382;82;21164;-46
2021/03/14 08:05:51;;;;;;;11.95;10.85;;;;;;;12.36;59.06;101446.58;1724369;82;21298;-46
2021/03/14 08:08:30;;;;;;;12.03;10.93;;;;;;;12.44;58.85;101444.69;1723304;82;21210;-46
2021/03/14 08:10:59;;;;;;;12.40;11.30;;;;;;;12.51;58.23;101444.97;1713282;82;21650;-46
2021/03/14 08:13:34;;;;;;;13.65;12.30;;;;;;;12.54;58.36;101448.84;1725923;81;21152;-46
2021/03/14 08:16:08;;;;;;;14.38;12.28;;;;;;;12.58;58.54;101453.13;1725977;82;21378;-46
2021/03/14 08:18:47;;;;;;;12.82;11.63;;;;;;;12.64;58.79;101455.61;1725427;82;21159;-46
2021/03/14 08:21:33;;;;;;;12.23;11.12;;;;;;;12.70;58.19;101451.58;1729469;82;21214;-46
2021/03/14 08:24:03;;;;;;;14.05;12.30;;;;;;;12.77;57.87;101450.58;1727980;82;21163;-46
2021/03/14 08:26:34;;;;;;;15.10;12.95;;;;;;;12.81;57.60;101448.32;1724586;82;21778;-46
2021/03/14 08:29:13;;;;;;;15.40;13.80;;;;;;;12.85;57.59;101453.03;1723103;82;21142;-46
2021/03/14 08:31:54;;;;;;;15.53;13.98;;;;;;;12.87;57.30;101452.12;1722934;82;21638;-46
2021/03/14 08:34:44;;;;;;;16.60;14.33;;;;;;;12.90;57.38;101453.81;1724349;82;21151;-46
2021/03/14 08:37:26;;;;;;;19.82;15.43;;;;;;;12.91;57.16;101444.63;1730127;82;21218;-46
2021/03/14 08:40:05;;;;;;;17.60;15.80;;;;;;;12.95;57.08;101453.26;1726171;82;21305;-46
2021/03/14 08:42:55;;;;;;;18.95;16.87;;;;;;;12.97;56.38;101450.16;1720717;82;21171;-46
2021/03/14 08:45:49;;;;;;;21.70;19.23;;;;;;;12.96;56.25;101446.69;1802079;79;22939;-46
2021/03/14 08:48:22;;;;;;;23.67;21.02;;;;;;;12.92;56.39;101446.34;1771682;80;21152;-46
2021/03/14 08:50:52;;;;;;;25.80;21.87;;;;;;;12.88;56.06;101448.59;1726884;83;21603;-46
2021/03/14 08:53:21;;;;;;;26.60;23.77;;;;;;;12.83;55.87;101446.54;1723533;83;21306;-46
2021/03/14 08:56:04;;;;;;;28.32;23.65;;;;;;;12.78;55.95;101447.06;1713632;81;21566;-46
2021/03/14 08:58:34;;;;;;;30.80;26.45;;;;;;;12.70;56.10;101442.88;1712649;81;21729;-46
2021/03/14 09:01:11;;;;;;;33.25;27.45;;;;;;;12.66;56.01;101439.47;1718694;83;21596;-46
2021/03/14 09:03:51;;;;;;;33.58;26.70;;;;;;;12.62;56.01;101432.59;1771685;79;23377;-46
2021/03/14 09:06:26;;;;;;;33.18;26.77;;;;;;;12.50;56.21;101430.22;1732140;81;21604;-46
2021/03/14 09:09:01;;;;;;;32.65;24.85;;;;;;;12.42;56.51;101432.11;1713956;82;21573;-46
2021/03/14 09:11:54;;;;;;;33.23;25.68;;;;;;;12.33;56.62;101427.05;1706203;82;21572;-46
2021/03/14 09:14:38;;;;;;;33.18;25.90;;;;;;;12.32;56.88;101427.09;1810355;79;22928;-46
2021/03/14 09:17:14;;;;;;;36.08;28.35;;;;;;;12.24;56.87;101430.68;1777288;80;21569;-46
2021/03/14 09:19:49;;;;;;;34.50;27.65;;;;;;;12.21;57.10;101423.36;1784572;80;21109;-46
2021/03/14 09:22:25;;;;;;;38.25;29.23;;;;;;;12.27;57.08;101416.72;1771558;79;22948;-46
2021/03/14 09:25:02;;;;;;;36.65;29.18;;;;;;;12.22;56.92;101421.15;1743951;81;21148;-46
2021/03/14 09:27:33;;;;;;;36.03;28.87;;;;;;;12.17;57.10;101428.22;1709000;82;21142;-46
2021/03/14 09:30:10;;;;;;;37.03;28.92;;;;;;;12.15;57.10;101424.77;1708665;82;21128;-46
2021/03/14 09:32:52;;;;;;;32.90;25.12;;;;;;;12.12;56.91;101419.59;1736312;82;21568;-46
2021/03/14 09:35:27;;;;;;;29.72;23.50;;;;;;;12.05;57.02;101420.17;1738035;82;21152;-46
2021/03/14 09:38:14;;;;;;;32.65;25.05;;;;;;;12.04;56.86;101416.26;1737708;82;21139;-46
2021/03/14 09:40:46;;;;;;;35.83;25.60;;;;;;;12.02;56.79;101421.95;1730812;82;21156;-46
2021/03/14 09:43:28;;;;;;;31.10;24.32;;;;;;;11.98;56.95;101414.62;1737457;82;21624;-46
2021/03/14 09:46:08;;;;;;;33.40;25.37;;;;;;;11.93;56.91;101410.39;1738591;82;21318;-46
2021/03/14 09:48:38;;;;;;;34.20;25.25;;;;;;;11.87;56.81;101411.80;1735123;82;21160;-46
2021/03/14 09:51:09;;;;;;;33.60;26.48;;;;;;;11.80;57.27;101412.77;1740627;82;21578;-46
2021/03/14 09:53:39;;;;;;;30.95;25.32;;;;;;;11.75;57.61;101419.79;1736678;82;21157;-46
2021/03/14 09:56:11;;;;;;;33.38;25.68;;;;;;;11.73;57.69;101413.73;1735799;82;21592;-46
2021/03/14 09:58:50;;;;;;;32.53;25.12;;;;;;;11.77;57.80;101414.11;1806754;79;22691;-46
2021/03/14 10:01:18;;;;;;;33.28;25.52;;;;;;;11.73;57.71;101411.13;1721493;83;21144;-46
2021/03/14 10:03:53;;;;;;;25.20;21.60;;;;;;;11.74;57.97;101403.74;1721577;83;21557;-46
2021/03/14 10:06:25;;;;;;;26.97;22.35;;;;;;;11.77;57.76;101403.67;1707112;83;21158;-46
2021/03/14 10:08:54;;;;;;;29.55;23.10;;;;;;;11.81;57.94;101400.16;1718451;83;21403;-46
2021/03/14 10:11:22;;;;;;;26.90;20.97;;;;;;;11.85;57.86;101399.23;1724628;83;21139;-46
2021/03/14 10:13:55;;;;;;;23.40;20.05;;;;;;;11.86;57.62;101400.94;1694457;83;21298;-46
2021/03/14 10:16:26;;;;;;;25.10;19.85;;;;;;;11.84;57.21;101401.40;1742258;82;21169;-46
2021/03/14 10:18:59;;;;;;;25.17;20.75;;;;;;;11.83;57.34;101395.78;1725068;82;21196;-46
2021/03/14 10:21:28;;;;;;;28.12;22.48;;;;;;;11.86;57.37;101393.98;1737379;82;21171;-46
2021/03/14 10:24:22;;;;;;;24.52;20.43;;;;;;;11.89;57.49;101385.25;1733868;82;21157;-46
2021/03/14 10:27:01;;;;;;;24.60;20.08;;;;;;;11.99;57.47;101377.68;1774343;79;22936;-45
2021/03/14 10:29:36;;;;;;;29.18;21.77;;;;;;;11.99;57.26;101385.03;1714801;83;21193;-46
2021/03/14 10:32:20;;;;;;;25.17;20.68;;;;;;;12.04;56.92;101386.27;1714564;83;21151;-46
2021/03/14 10:35:04;;;;;;;26.02;20.32;;;;;;;12.06;56.74;101380.58;1799460;79;23344;-46
2021/03/14 10:37:35;;;;;;;23.30;18.57;;;;;;;11.94;56.67;101375.58;1775593;80;21136;-46
2021/03/14 10:40:14;;;;;;;21.73;18.57;;;;;;;11.87;56.92;101385.25;1772698;80;21616;-46
2021/03/14 10:42:46;;;;;;;20.43;17.60;;;;;;;11.81;56.89;101387.13;1762695;80;21559;-45
2021/03/14 10:45:19;;;;;;;20.37;17.40;;;;;;;11.70;57.19;101376.00;1780595;80;21105;-45
2021/03/14 10:48:01;;;;;;;19.48;17.40;;;;;;;11.66;57.17;101375.60;1778928;80;21187;-45
2021/03/14 10:50:35;;;;;;;24.72;20.57;;;;;;;11.64;57.17;101373.47;1696007;83;21142;-45
2021/03/14 10:53:16;;;;;;;21.75;18.77;;;;;;;11.66;57.63;101366.48;1771769;79;22958;-46
2021/03/14 10:55:47;;;;;;;22.98;19.48;;;;;;;11.65;57.48;101360.40;1738587;82;21168;-44
2021/03/14 10:58:18;;;;;;;23.83;19.57;;;;;;;11.67;57.84;101355.19;1737960;81;21148;-45
2021/03/14 11:00:54;;;;;;;23.40;19.55;;;;;;;11.71;57.62;101351.64;1733869;82;21137;-45
2021/03/14 11:03:37;;;;;;;25.75;20.08;;;;;;;11.73;57.57;101348.13;1734658;82;21140;-45
2021/03/14 11:06:17;;;;;;;20.97;18.67;;;;;;;11.76;57.48;101335.48;1726772;82;22014;-45
2021/03/14 11:08:57;;;;;;;20.75;17.42;;;;;;;11.77;57.54;101325.45;1749568;82;21275;-45
2021/03/14 11:11:44;;;;;;;21.53;18.50;;;;;;;11.76;57.16;101328.53;1740594;82;21152;-45
2021/03/14 11:14:31;;;;;;;23.12;19.00;;;;;;;11.72;57.24;101317.75;1738036;82;21117;-46
2021/03/14 11:17:22;;;;;;;22.42;18.52;;;;;;;11.79;57.77;101313.25;1769980;79;22975;-46
2021/03/14 11:19:54;;;;;;;20.85;17.80;;;;;;;11.80;57.85;101321.08;1728690;82;21149;-45
2021/03/14 11:22:24;;;;;;;20.85;18.40;;;;;;;11.87;57.37;101315.31;1741705;82;21580;-45
2021/03/14 11:24:53;;;;;;;19.32;17.20;;;;;;;11.95;57.18;101312.12;1737196;82;21188;-45
2021/03/14 11:27:23;;;;;;;20.10;18.02;;;;;;;11.99;56.58;101312.47;1737446;82;21165;-45
2021/03/14 11:29:52;;;;;;;20.30;17.75;;;;;;;12.00;56.35;101312.88;1741520;81;21144;-45
2021/03/14 11:32:23;;;;;;;19.30;16.97;;;;;;;12.01;56.15;101312.00;1734952;82;21148;-46
2021/03/14 11:34:53;;;;;;;18.55;16.50;;;;;;;12.00;56.23;101315.48;1737063;82;21140;-45
2021/03/14 11:37:39;;;;;;;20.40;18.50;;;;;;;12.03;56.02;101314.14;1758650;79;38575;-46
2021/03/14 11:40:09;;;;;;;18.25;16.40;;;;;;;12.03;55.93;101310.22;1658172;86;21194;-47
2021/03/14 11:42:47;;;;;;;17.35;15.55;;;;;;;12.13;55.58;101302.20;1819890;79;22921;-46